sensor_id;sensor_type;location;lat;lon;timestamp;temperature;humidity
6379;DHT22;3222;48.858;10.128;2023-05-29T00:00:07;16.40;96.20
6379;DHT22;3222;48.858;10.128;2023-05-29T00:02:35;16.40;96.20
6379;DHT22;3222;48.858;10.128;2023-05-29T00:05:01;16.40;96.30
6379;DHT22;3222;48.858;10.128;2023-05-29T00:07:32;16.40;96.30
6379;DHT22;3222;48.858;10.128;2023-05-29T00:10:00;16.40;96.20
6379;DHT22;3222;48.858;10.128;2023-05-29T00:12:25;16.40;96.20
6379;DHT22;3222;48.858;10.128;2023-05-29T00:14:51;16.40;96.20
6379;DHT22;3222;48.858;10.128;2023-05-29T00:17:17;16.40;96.30
6379;DHT22;3222;48.858;10.128;2023-05-29T00:19:43;16.30;96.20
6379;DHT22;3222;48.858;10.128;2023-05-29T00:22:09;16.40;96.30
6379;DHT22;3222;48.858;10.128;2023-05-29T00:24:35;16.40;96.30
6379;DHT22;3222;48.858;10.128;2023-05-29T00:27:01;16.40;96.40
6379;DHT22;3222;48.858;10.128;2023-05-29T00:29:27;16.30;96.30
6379;DHT22;3222;48.858;10.128;2023-05-29T00:31:54;16.30;96.30
6379;DHT22;3222;48.858;10.128;2023-05-29T00:34:22;16.30;96.30
6379;DHT22;3222;48.858;10.128;2023-05-29T00:36:48;16.20;96.50
6379;DHT22;3222;48.858;10.128;2023-05-29T00:39:14;16.20;96.40
6379;DHT22;3222;48.858;10.128;2023-05-29T00:41:41;16.30;96.30
6379;DHT22;3222;48.858;10.128;2023-05-29T00:44:06;16.30;96.50
6379;DHT22;3222;48.858;10.128;2023-05-29T00:46:33;16.30;96.50
6379;DHT22;3222;48.858;10.128;2023-05-29T00:49:00;16.20;96.40
6379;DHT22;3222;48.858;10.128;2023-05-29T00:51:27;16.20;96.40
6379;DHT22;3222;48.858;10.128;2023-05-29T00:53:54;16.10;96.70
6379;DHT22;3222;48.858;10.128;2023-05-29T00:56:21;16.10;96.40
6379;DHT22;3222;48.858;10.128;2023-05-29T00:58:51;16.10;96.40
6379;DHT22;3222;48.858;10.128;2023-05-29T01:01:18;16.10;96.20
6379;DHT22;3222;48.858;10.128;2023-05-29T01:03:44;16.10;96.10
6379;DHT22;3222;48.858;10.128;2023-05-29T01:06:11;16.10;96.30
6379;DHT22;3222;48.858;10.128;2023-05-29T01:08:37;16.20;96.10
6379;DHT22;3222;48.858;10.128;2023-05-29T01:11:22;16.10;96.10
6379;DHT22;3222;48.858;10.128;2023-05-29T01:13:53;16.30;95.80
6379;DHT22;3222;48.858;10.128;2023-05-29T01:16:26;16.20;95.70
6379;DHT22;3222;48.858;10.128;2023-05-29T01:19:10;16.20;95.70
6379;DHT22;3222;48.858;10.128;2023-05-29T01:24:44;16.10;95.70
6379;DHT22;3222;48.858;10.128;2023-05-29T01:27:15;16.10;95.90
6379;DHT22;3222;48.858;10.128;2023-05-29T01:29:43;16.10;95.80
6379;DHT22;3222;48.858;10.128;2023-05-29T01:32:11;16.10;95.60
6379;DHT22;3222;48.858;10.128;2023-05-29T01:34:37;16.20;95.80
6379;DHT22;3222;48.858;10.128;2023-05-29T01:37:02;16.20;95.80
6379;DHT22;3222;48.858;10.128;2023-05-29T01:39:29;16.20;95.50
6379;DHT22;3222;48.858;10.128;2023-05-29T01:41:58;16.20;95.40
6379;DHT22;3222;48.858;10.128;2023-05-29T01:44:24;16.10;95.60
6379;DHT22;3222;48.858;10.128;2023-05-29T01:46:51;16.10;95.80
6379;DHT22;3222;48.858;10.128;2023-05-29T01:49:17;16.00;96.00
6379;DHT22;3222;48.858;10.128;2023-05-29T01:51:43;16.10;95.90
6379;DHT22;3222;48.858;10.128;2023-05-29T01:54:09;16.10;95.90
6379;DHT22;3222;48.858;10.128;2023-05-29T01:56:36;16.10;96.00
6379;DHT22;3222;48.858;10.128;2023-05-29T01:59:03;16.10;95.80
6379;DHT22;3222;48.858;10.128;2023-05-29T02:01:30;16.10;95.40
6379;DHT22;3222;48.858;10.128;2023-05-29T02:03:56;16.10;95.60
6379;DHT22;3222;48.858;10.128;2023-05-29T02:06:22;16.20;95.50
6379;DHT22;3222;48.858;10.128;2023-05-29T02:08:48;16.10;95.80
6379;DHT22;3222;48.858;10.128;2023-05-29T02:11:13;16.00;95.60
6379;DHT22;3222;48.858;10.128;2023-05-29T02:13:39;16.10;95.80
6379;DHT22;3222;48.858;10.128;2023-05-29T02:16:05;16.10;95.80
6379;DHT22;3222;48.858;10.128;2023-05-29T02:18:31;16.10;95.90
6379;DHT22;3222;48.858;10.128;2023-05-29T02:20:57;16.10;95.60
6379;DHT22;3222;48.858;10.128;2023-05-29T02:23:23;16.10;95.70
6379;DHT22;3222;48.858;10.128;2023-05-29T02:25:50;16.10;95.90
6379;DHT22;3222;48.858;10.128;2023-05-29T02:28:16;16.10;95.70
6379;DHT22;3222;48.858;10.128;2023-05-29T02:30:41;16.10;95.90
6379;DHT22;3222;48.858;10.128;2023-05-29T02:33:08;16.10;95.70
6379;DHT22;3222;48.858;10.128;2023-05-29T02:35:34;16.10;95.60
6379;DHT22;3222;48.858;10.128;2023-05-29T02:38:00;16.10;95.60
6379;DHT22;3222;48.858;10.128;2023-05-29T02:40:26;16.10;95.60
6379;DHT22;3222;48.858;10.128;2023-05-29T02:42:51;16.00;95.40
6379;DHT22;3222;48.858;10.128;2023-05-29T02:45:17;16.10;95.50
6379;DHT22;3222;48.858;10.128;2023-05-29T02:47:43;16.00;95.50
6379;DHT22;3222;48.858;10.128;2023-05-29T02:50:09;16.00;95.70
6379;DHT22;3222;48.858;10.128;2023-05-29T02:52:35;16.00;95.90
6379;DHT22;3222;48.858;10.128;2023-05-29T02:55:03;16.00;96.00
6379;DHT22;3222;48.858;10.128;2023-05-29T02:57:30;15.90;95.90
6379;DHT22;3222;48.858;10.128;2023-05-29T02:59:55;16.00;95.70
6379;DHT22;3222;48.858;10.128;2023-05-29T03:02:21;15.90;96.10
6379;DHT22;3222;48.858;10.128;2023-05-29T03:04:46;15.90;95.80
6379;DHT22;3222;48.858;10.128;2023-05-29T03:07:16;16.00;95.80
6379;DHT22;3222;48.858;10.128;2023-05-29T03:09:41;16.00;95.80
6379;DHT22;3222;48.858;10.128;2023-05-29T03:12:09;15.90;95.60
6379;DHT22;3222;48.858;10.128;2023-05-29T03:14:35;15.90;95.60
6379;DHT22;3222;48.858;10.128;2023-05-29T03:17:05;15.90;95.80
6379;DHT22;3222;48.858;10.128;2023-05-29T03:19:32;15.80;95.80
6379;DHT22;3222;48.858;10.128;2023-05-29T03:21:58;15.80;95.60
6379;DHT22;3222;48.858;10.128;2023-05-29T03:24:24;15.80;95.90
6379;DHT22;3222;48.858;10.128;2023-05-29T03:26:50;15.80;95.80
6379;DHT22;3222;48.858;10.128;2023-05-29T03:29:17;15.80;95.60
6379;DHT22;3222;48.858;10.128;2023-05-29T03:31:43;15.80;95.50
6379;DHT22;3222;48.858;10.128;2023-05-29T03:34:09;15.80;95.60
6379;DHT22;3222;48.858;10.128;2023-05-29T03:36:44;15.80;95.50
6379;DHT22;3222;48.858;10.128;2023-05-29T03:39:11;15.70;95.50
6379;DHT22;3222;48.858;10.128;2023-05-29T03:41:39;15.70;95.40
6379;DHT22;3222;48.858;10.128;2023-05-29T03:44:05;15.70;95.40
6379;DHT22;3222;48.858;10.128;2023-05-29T03:46:31;15.70;95.50
6379;DHT22;3222;48.858;10.128;2023-05-29T03:48:57;15.70;95.40
6379;DHT22;3222;48.858;10.128;2023-05-29T03:51:22;15.70;95.40
6379;DHT22;3222;48.858;10.128;2023-05-29T03:53:50;15.60;95.40
6379;DHT22;3222;48.858;10.128;2023-05-29T03:56:16;15.60;95.50
6379;DHT22;3222;48.858;10.128;2023-05-29T03:58:42;15.60;95.50
6379;DHT22;3222;48.858;10.128;2023-05-29T04:01:08;15.60;95.40
6379;DHT22;3222;48.858;10.128;2023-05-29T04:03:34;15.60;95.50
6379;DHT22;3222;48.858;10.128;2023-05-29T04:06:00;15.60;95.70
6379;DHT22;3222;48.858;10.128;2023-05-29T04:08:26;15.50;95.60
6379;DHT22;3222;48.858;10.128;2023-05-29T04:10:52;15.50;95.90
6379;DHT22;3222;48.858;10.128;2023-05-29T04:13:20;15.60;95.40
6379;DHT22;3222;48.858;10.128;2023-05-29T04:15:46;15.60;95.50
6379;DHT22;3222;48.858;10.128;2023-05-29T04:18:13;15.60;95.40
6379;DHT22;3222;48.858;10.128;2023-05-29T04:20:39;15.60;95.50
6379;DHT22;3222;48.858;10.128;2023-05-29T04:23:04;15.60;95.70
6379;DHT22;3222;48.858;10.128;2023-05-29T04:25:31;15.60;95.60
6379;DHT22;3222;48.858;10.128;2023-05-29T04:27:57;15.50;95.60
6379;DHT22;3222;48.858;10.128;2023-05-29T04:30:26;15.50;95.60
6379;DHT22;3222;48.858;10.128;2023-05-29T04:32:52;15.60;95.60
6379;DHT22;3222;48.858;10.128;2023-05-29T04:35:20;15.60;95.50
6379;DHT22;3222;48.858;10.128;2023-05-29T04:37:56;15.60;95.70
6379;DHT22;3222;48.858;10.128;2023-05-29T04:40:26;15.60;95.80
6379;DHT22;3222;48.858;10.128;2023-05-29T04:42:52;15.50;95.70
6379;DHT22;3222;48.858;10.128;2023-05-29T04:45:22;15.60;95.80
6379;DHT22;3222;48.858;10.128;2023-05-29T04:47:48;15.60;95.80
6379;DHT22;3222;48.858;10.128;2023-05-29T04:50:16;15.60;95.90
6379;DHT22;3222;48.858;10.128;2023-05-29T04:52:43;15.60;95.90
6379;DHT22;3222;48.858;10.128;2023-05-29T04:55:10;15.60;95.90
6379;DHT22;3222;48.858;10.128;2023-05-29T04:57:36;15.60;96.00
6379;DHT22;3222;48.858;10.128;2023-05-29T05:00:03;15.60;96.00
6379;DHT22;3222;48.858;10.128;2023-05-29T05:02:34;15.60;96.20
6379;DHT22;3222;48.858;10.128;2023-05-29T05:05:00;15.70;96.20
6379;DHT22;3222;48.858;10.128;2023-05-29T05:07:26;15.70;96.30
6379;DHT22;3222;48.858;10.128;2023-05-29T05:09:51;15.60;96.40
6379;DHT22;3222;48.858;10.128;2023-05-29T05:12:21;15.60;96.50
6379;DHT22;3222;48.858;10.128;2023-05-29T05:14:47;15.60;96.50
6379;DHT22;3222;48.858;10.128;2023-05-29T05:17:13;15.70;96.60
6379;DHT22;3222;48.858;10.128;2023-05-29T05:19:40;15.70;96.60
6379;DHT22;3222;48.858;10.128;2023-05-29T05:22:06;15.70;96.80
6379;DHT22;3222;48.858;10.128;2023-05-29T05:24:32;15.80;96.90
6379;DHT22;3222;48.858;10.128;2023-05-29T05:26:57;15.70;97.10
6379;DHT22;3222;48.858;10.128;2023-05-29T05:29:23;15.80;97.20
6379;DHT22;3222;48.858;10.128;2023-05-29T05:31:48;15.80;97.20
6379;DHT22;3222;48.858;10.128;2023-05-29T05:34:14;15.80;97.40
6379;DHT22;3222;48.858;10.128;2023-05-29T05:36:42;15.90;97.60
6379;DHT22;3222;48.858;10.128;2023-05-29T05:39:12;15.90;97.40
6379;DHT22;3222;48.858;10.128;2023-05-29T05:41:38;15.80;97.50
6379;DHT22;3222;48.858;10.128;2023-05-29T05:44:04;15.90;97.70
6379;DHT22;3222;48.858;10.128;2023-05-29T05:46:38;15.90;97.70
6379;DHT22;3222;48.858;10.128;2023-05-29T05:49:04;16.00;97.90
6379;DHT22;3222;48.858;10.128;2023-05-29T05:51:30;16.00;97.90
6379;DHT22;3222;48.858;10.128;2023-05-29T05:53:56;16.00;98.00
6379;DHT22;3222;48.858;10.128;2023-05-29T05:56:22;16.00;98.00
6379;DHT22;3222;48.858;10.128;2023-05-29T05:58:47;16.00;98.20
6379;DHT22;3222;48.858;10.128;2023-05-29T06:01:18;16.10;98.20
6379;DHT22;3222;48.858;10.128;2023-05-29T06:03:44;16.20;98.60
6379;DHT22;3222;48.858;10.128;2023-05-29T06:06:10;16.20;98.40
6379;DHT22;3222;48.858;10.128;2023-05-29T06:08:38;16.20;98.50
6379;DHT22;3222;48.858;10.128;2023-05-29T06:11:06;16.20;98.50
6379;DHT22;3222;48.858;10.128;2023-05-29T06:13:34;16.20;98.80
6379;DHT22;3222;48.858;10.128;2023-05-29T06:16:06;16.40;99.30
6379;DHT22;3222;48.858;10.128;2023-05-29T06:18:31;16.40;98.80
6379;DHT22;3222;48.858;10.128;2023-05-29T06:20:57;16.30;99.00
6379;DHT22;3222;48.858;10.128;2023-05-29T06:23:22;16.30;99.10
6379;DHT22;3222;48.858;10.128;2023-05-29T06:25:49;16.50;99.10
6379;DHT22;3222;48.858;10.128;2023-05-29T06:28:15;16.40;99.50
6379;DHT22;3222;48.858;10.128;2023-05-29T06:30:40;16.40;99.20
6379;DHT22;3222;48.858;10.128;2023-05-29T06:33:07;16.40;99.60
6379;DHT22;3222;48.858;10.128;2023-05-29T06:35:34;16.40;99.30
6379;DHT22;3222;48.858;10.128;2023-05-29T06:38:00;16.50;99.40
6379;DHT22;3222;48.858;10.128;2023-05-29T06:40:26;16.50;99.40
6379;DHT22;3222;48.858;10.128;2023-05-29T06:42:52;16.60;99.80
6379;DHT22;3222;48.858;10.128;2023-05-29T06:45:30;16.70;99.80
6379;DHT22;3222;48.858;10.128;2023-05-29T06:47:56;16.80;99.50
6379;DHT22;3222;48.858;10.128;2023-05-29T06:50:22;16.90;99.70
6379;DHT22;3222;48.858;10.128;2023-05-29T06:52:47;17.10;98.90
6379;DHT22;3222;48.858;10.128;2023-05-29T06:55:27;17.20;98.60
6379;DHT22;3222;48.858;10.128;2023-05-29T06:57:56;17.10;98.70
6379;DHT22;3222;48.858;10.128;2023-05-29T07:00:23;17.10;99.00
6379;DHT22;3222;48.858;10.128;2023-05-29T07:03:00;17.10;98.70
6379;DHT22;3222;48.858;10.128;2023-05-29T07:05:27;17.20;98.10
6379;DHT22;3222;48.858;10.128;2023-05-29T07:07:52;17.20;98.10
6379;DHT22;3222;48.858;10.128;2023-05-29T07:10:18;17.20;98.10
6379;DHT22;3222;48.858;10.128;2023-05-29T07:12:44;17.10;98.40
6379;DHT22;3222;48.858;10.128;2023-05-29T07:15:10;17.10;98.40
6379;DHT22;3222;48.858;10.128;2023-05-29T07:17:36;17.10;98.50
6379;DHT22;3222;48.858;10.128;2023-05-29T07:20:12;17.20;98.30
6379;DHT22;3222;48.858;10.128;2023-05-29T07:22:38;17.20;98.80
6379;DHT22;3222;48.858;10.128;2023-05-29T07:25:04;17.20;98.60
6379;DHT22;3222;48.858;10.128;2023-05-29T07:27:31;17.20;98.70
6379;DHT22;3222;48.858;10.128;2023-05-29T07:29:56;17.30;98.30
6379;DHT22;3222;48.858;10.128;2023-05-29T07:32:22;17.30;98.30
6379;DHT22;3222;48.858;10.128;2023-05-29T07:34:49;17.30;97.80
6379;DHT22;3222;48.858;10.128;2023-05-29T07:37:16;17.40;98.00
6379;DHT22;3222;48.858;10.128;2023-05-29T07:39:44;17.40;97.90
6379;DHT22;3222;48.858;10.128;2023-05-29T07:42:29;17.40;97.60
6379;DHT22;3222;48.858;10.128;2023-05-29T07:44:55;17.50;98.00
6379;DHT22;3222;48.858;10.128;2023-05-29T07:47:22;17.60;98.30
6379;DHT22;3222;48.858;10.128;2023-05-29T07:49:48;17.70;98.00
6379;DHT22;3222;48.858;10.128;2023-05-29T07:52:13;17.80;97.90
6379;DHT22;3222;48.858;10.128;2023-05-29T07:54:40;17.80;97.90
6379;DHT22;3222;48.858;10.128;2023-05-29T07:57:08;17.80;98.00
6379;DHT22;3222;48.858;10.128;2023-05-29T07:59:38;18.00;97.40
6379;DHT22;3222;48.858;10.128;2023-05-29T08:02:05;18.00;97.60
6379;DHT22;3222;48.858;10.128;2023-05-29T08:04:46;18.00;97.80
6379;DHT22;3222;48.858;10.128;2023-05-29T08:07:12;18.00;97.90
6379;DHT22;3222;48.858;10.128;2023-05-29T08:09:38;18.00;98.10
6379;DHT22;3222;48.858;10.128;2023-05-29T08:12:04;18.10;97.70
6379;DHT22;3222;48.858;10.128;2023-05-29T08:14:31;18.10;97.60
6379;DHT22;3222;48.858;10.128;2023-05-29T08:16:58;18.10;97.80
6379;DHT22;3222;48.858;10.128;2023-05-29T08:19:24;18.20;97.90
6379;DHT22;3222;48.858;10.128;2023-05-29T08:21:50;18.30;98.00
6379;DHT22;3222;48.858;10.128;2023-05-29T08:24:16;18.30;98.10
6379;DHT22;3222;48.858;10.128;2023-05-29T08:26:42;18.30;98.10
6379;DHT22;3222;48.858;10.128;2023-05-29T08:29:09;18.40;97.90
6379;DHT22;3222;48.858;10.128;2023-05-29T08:31:34;18.50;97.40
6379;DHT22;3222;48.858;10.128;2023-05-29T08:34:01;18.50;97.40
6379;DHT22;3222;48.858;10.128;2023-05-29T08:36:26;18.50;97.10
6379;DHT22;3222;48.858;10.128;2023-05-29T08:38:52;18.60;97.40
6379;DHT22;3222;48.858;10.128;2023-05-29T08:41:37;18.70;97.00
6379;DHT22;3222;48.858;10.128;2023-05-29T08:44:07;18.70;97.10
6379;DHT22;3222;48.858;10.128;2023-05-29T08:46:33;18.80;97.30
6379;DHT22;3222;48.858;10.128;2023-05-29T08:49:01;18.80;97.00
6379;DHT22;3222;48.858;10.128;2023-05-29T08:51:31;18.90;97.00
6379;DHT22;3222;48.858;10.128;2023-05-29T08:54:00;18.90;97.10
6379;DHT22;3222;48.858;10.128;2023-05-29T08:56:26;18.90;96.90
6379;DHT22;3222;48.858;10.128;2023-05-29T08:58:53;18.90;96.40
6379;DHT22;3222;48.858;10.128;2023-05-29T09:01:19;19.00;96.20
6379;DHT22;3222;48.858;10.128;2023-05-29T09:03:47;19.00;95.90
6379;DHT22;3222;48.858;10.128;2023-05-29T09:06:13;19.00;96.30
6379;DHT22;3222;48.858;10.128;2023-05-29T09:08:38;19.10;95.70
6379;DHT22;3222;48.858;10.128;2023-05-29T09:11:04;19.10;95.40
6379;DHT22;3222;48.858;10.128;2023-05-29T09:13:30;19.20;95.90
6379;DHT22;3222;48.858;10.128;2023-05-29T09:16:00;19.20;96.20
6379;DHT22;3222;48.858;10.128;2023-05-29T09:18:29;19.30;96.00
6379;DHT22;3222;48.858;10.128;2023-05-29T09:20:56;19.40;95.20
6379;DHT22;3222;48.858;10.128;2023-05-29T09:23:21;19.40;95.20
6379;DHT22;3222;48.858;10.128;2023-05-29T09:25:51;19.60;94.70
6379;DHT22;3222;48.858;10.128;2023-05-29T09:28:18;19.60;94.80
6379;DHT22;3222;48.858;10.128;2023-05-29T09:30:47;19.60;95.20
6379;DHT22;3222;48.858;10.128;2023-05-29T09:33:16;19.50;95.20
6379;DHT22;3222;48.858;10.128;2023-05-29T09:35:43;19.50;95.40
6379;DHT22;3222;48.858;10.128;2023-05-29T09:38:11;19.60;95.80
6379;DHT22;3222;48.858;10.128;2023-05-29T09:40:38;19.70;96.00
6379;DHT22;3222;48.858;10.128;2023-05-29T09:43:13;19.70;96.30
6379;DHT22;3222;48.858;10.128;2023-05-29T09:45:41;19.70;95.80
6379;DHT22;3222;48.858;10.128;2023-05-29T09:48:11;19.70;96.30
6379;DHT22;3222;48.858;10.128;2023-05-29T09:50:37;19.80;95.70
6379;DHT22;3222;48.858;10.128;2023-05-29T09:53:03;19.90;96.10
6379;DHT22;3222;48.858;10.128;2023-05-29T09:55:30;20.10;95.10
6379;DHT22;3222;48.858;10.128;2023-05-29T09:57:57;20.20;94.40
6379;DHT22;3222;48.858;10.128;2023-05-29T10:00:24;20.10;94.60
6379;DHT22;3222;48.858;10.128;2023-05-29T10:02:50;20.20;94.90
6379;DHT22;3222;48.858;10.128;2023-05-29T10:05:16;20.20;95.00
6379;DHT22;3222;48.858;10.128;2023-05-29T10:07:46;20.10;94.30
6379;DHT22;3222;48.858;10.128;2023-05-29T10:10:16;20.10;94.80
6379;DHT22;3222;48.858;10.128;2023-05-29T10:12:48;20.10;94.90
6379;DHT22;3222;48.858;10.128;2023-05-29T10:15:15;20.20;95.30
6379;DHT22;3222;48.858;10.128;2023-05-29T10:18:09;20.20;95.70
6379;DHT22;3222;48.858;10.128;2023-05-29T10:20:38;20.30;94.40
6379;DHT22;3222;48.858;10.128;2023-05-29T10:23:05;20.30;94.40
6379;DHT22;3222;48.858;10.128;2023-05-29T10:25:33;20.20;94.20
6379;DHT22;3222;48.858;10.128;2023-05-29T10:28:01;20.30;95.10
6379;DHT22;3222;48.858;10.128;2023-05-29T10:30:51;20.40;94.40
6379;DHT22;3222;48.858;10.128;2023-05-29T10:33:33;20.50;94.00
6379;DHT22;3222;48.858;10.128;2023-05-29T10:36:12;20.60;94.30
6379;DHT22;3222;48.858;10.128;2023-05-29T10:38:41;20.50;94.00
6379;DHT22;3222;48.858;10.128;2023-05-29T10:43:57;20.60;93.20
6379;DHT22;3222;48.858;10.128;2023-05-29T10:49:23;20.50;93.80
6379;DHT22;3222;48.858;10.128;2023-05-29T10:51:49;20.60;94.20
6379;DHT22;3222;48.858;10.128;2023-05-29T10:54:15;20.60;94.80
6379;DHT22;3222;48.858;10.128;2023-05-29T10:57:00;20.60;94.30
6379;DHT22;3222;48.858;10.128;2023-05-29T10:59:26;20.60;94.20
6379;DHT22;3222;48.858;10.128;2023-05-29T11:01:54;20.60;94.00
6379;DHT22;3222;48.858;10.128;2023-05-29T11:06:47;20.70;94.90
6379;DHT22;3222;48.858;10.128;2023-05-29T11:09:35;20.80;95.00
6379;DHT22;3222;48.858;10.128;2023-05-29T11:15:08;20.90;94.00
6379;DHT22;3222;48.858;10.128;2023-05-29T11:22:56;20.90;93.70
6379;DHT22;3222;48.858;10.128;2023-05-29T11:25:26;21.00;93.30
6379;DHT22;3222;48.858;10.128;2023-05-29T11:27:52;21.00;93.40
6379;DHT22;3222;48.858;10.128;2023-05-29T11:30:21;21.10;93.80
6379;DHT22;3222;48.858;10.128;2023-05-29T11:32:48;21.20;93.60
6379;DHT22;3222;48.858;10.128;2023-05-29T11:35:14;21.20;93.60
6379;DHT22;3222;48.858;10.128;2023-05-29T11:37:43;21.30;93.30
6379;DHT22;3222;48.858;10.128;2023-05-29T11:40:12;21.40;93.30
6379;DHT22;3222;48.858;10.128;2023-05-29T11:42:45;21.40;92.90
6379;DHT22;3222;48.858;10.128;2023-05-29T11:45:16;21.40;92.50
6379;DHT22;3222;48.858;10.128;2023-05-29T11:47:58;21.50;92.90
6379;DHT22;3222;48.858;10.128;2023-05-29T11:50:25;21.60;92.90
6379;DHT22;3222;48.858;10.128;2023-05-29T11:52:51;21.60;93.10
6379;DHT22;3222;48.858;10.128;2023-05-29T11:55:18;21.70;93.00
6379;DHT22;3222;48.858;10.128;2023-05-29T11:58:06;21.90;92.20
6379;DHT22;3222;48.858;10.128;2023-05-29T12:00:33;22.00;92.40
6379;DHT22;3222;48.858;10.128;2023-05-29T12:02:59;22.00;91.70
6379;DHT22;3222;48.858;10.128;2023-05-29T12:05:38;22.00;91.90
6379;DHT22;3222;48.858;10.128;2023-05-29T12:08:09;22.20;91.40
6379;DHT22;3222;48.858;10.128;2023-05-29T12:10:35;22.20;91.20
6379;DHT22;3222;48.858;10.128;2023-05-29T12:13:01;22.20;90.30
6379;DHT22;3222;48.858;10.128;2023-05-29T12:15:27;22.30;90.10
6379;DHT22;3222;48.858;10.128;2023-05-29T12:17:53;22.30;89.60
6379;DHT22;3222;48.858;10.128;2023-05-29T12:20:22;22.40;90.10
6379;DHT22;3222;48.858;10.128;2023-05-29T12:22:49;22.30;90.00
6379;DHT22;3222;48.858;10.128;2023-05-29T12:25:24;22.40;90.60
6379;DHT22;3222;48.858;10.128;2023-05-29T12:27:50;22.30;91.20
6379;DHT22;3222;48.858;10.128;2023-05-29T12:32:46;22.50;90.20
6379;DHT22;3222;48.858;10.128;2023-05-29T12:35:25;22.50;89.80
6379;DHT22;3222;48.858;10.128;2023-05-29T12:40:22;22.50;88.30
6379;DHT22;3222;48.858;10.128;2023-05-29T12:42:52;22.50;88.60
6379;DHT22;3222;48.858;10.128;2023-05-29T12:45:18;22.50;89.10
6379;DHT22;3222;48.858;10.128;2023-05-29T12:47:45;22.50;88.40
6379;DHT22;3222;48.858;10.128;2023-05-29T12:50:22;22.50;89.10
6379;DHT22;3222;48.858;10.128;2023-05-29T12:53:07;22.50;87.30
6379;DHT22;3222;48.858;10.128;2023-05-29T12:55:41;22.50;87.40
6379;DHT22;3222;48.858;10.128;2023-05-29T12:58:11;22.50;88.70
6379;DHT22;3222;48.858;10.128;2023-05-29T13:00:39;22.50;88.30
6379;DHT22;3222;48.858;10.128;2023-05-29T13:03:06;22.60;88.30
6379;DHT22;3222;48.858;10.128;2023-05-29T13:05:32;22.60;87.40
6379;DHT22;3222;48.858;10.128;2023-05-29T13:07:58;22.60;88.40
6379;DHT22;3222;48.858;10.128;2023-05-29T13:10:25;22.60;88.60
6379;DHT22;3222;48.858;10.128;2023-05-29T13:12:52;22.70;87.50
6379;DHT22;3222;48.858;10.128;2023-05-29T13:15:21;22.90;81.60
6379;DHT22;3222;48.858;10.128;2023-05-29T13:17:47;23.00;85.00
6379;DHT22;3222;48.858;10.128;2023-05-29T13:20:13;22.90;85.80
6379;DHT22;3222;48.858;10.128;2023-05-29T13:22:40;22.90;86.40
6379;DHT22;3222;48.858;10.128;2023-05-29T13:25:08;23.00;84.50
6379;DHT22;3222;48.858;10.128;2023-05-29T13:27:40;23.00;84.30
6379;DHT22;3222;48.858;10.128;2023-05-29T13:30:08;23.00;82.60
6379;DHT22;3222;48.858;10.128;2023-05-29T13:32:34;23.00;83.90
6379;DHT22;3222;48.858;10.128;2023-05-29T13:35:00;23.10;84.30
6379;DHT22;3222;48.858;10.128;2023-05-29T13:37:26;23.20;85.80
6379;DHT22;3222;48.858;10.128;2023-05-29T13:39:53;23.30;85.10
6379;DHT22;3222;48.858;10.128;2023-05-29T13:42:20;23.30;82.60
6379;DHT22;3222;48.858;10.128;2023-05-29T13:44:49;23.30;84.80
6379;DHT22;3222;48.858;10.128;2023-05-29T13:47:15;23.40;81.70
6379;DHT22;3222;48.858;10.128;2023-05-29T13:49:41;23.50;83.10
6379;DHT22;3222;48.858;10.128;2023-05-29T13:52:06;23.50;84.20
6379;DHT22;3222;48.858;10.128;2023-05-29T13:54:33;23.60;82.50
6379;DHT22;3222;48.858;10.128;2023-05-29T13:57:02;23.60;83.20
6379;DHT22;3222;48.858;10.128;2023-05-29T13:59:32;23.60;82.90
6379;DHT22;3222;48.858;10.128;2023-05-29T14:01:58;23.70;84.60
6379;DHT22;3222;48.858;10.128;2023-05-29T14:04:24;23.70;84.40
6379;DHT22;3222;48.858;10.128;2023-05-29T14:06:50;23.70;84.00
6379;DHT22;3222;48.858;10.128;2023-05-29T14:09:16;23.70;85.20
6379;DHT22;3222;48.858;10.128;2023-05-29T14:11:42;23.80;84.00
6379;DHT22;3222;48.858;10.128;2023-05-29T14:14:08;23.90;82.40
6379;DHT22;3222;48.858;10.128;2023-05-29T14:16:34;23.90;81.00
6379;DHT22;3222;48.858;10.128;2023-05-29T14:19:00;23.90;80.10
6379;DHT22;3222;48.858;10.128;2023-05-29T14:21:26;24.00;81.20
6379;DHT22;3222;48.858;10.128;2023-05-29T14:23:51;24.00;78.40
6379;DHT22;3222;48.858;10.128;2023-05-29T14:26:17;24.00;79.10
6379;DHT22;3222;48.858;10.128;2023-05-29T14:28:44;24.10;79.70
6379;DHT22;3222;48.858;10.128;2023-05-29T14:31:10;24.10;79.60
6379;DHT22;3222;48.858;10.128;2023-05-29T14:33:35;24.10;78.80
6379;DHT22;3222;48.858;10.128;2023-05-29T14:36:02;24.10;76.20
6379;DHT22;3222;48.858;10.128;2023-05-29T14:38:28;24.10;75.60
6379;DHT22;3222;48.858;10.128;2023-05-29T14:40:54;24.00;77.40
6379;DHT22;3222;48.858;10.128;2023-05-29T14:43:19;24.10;76.30
6379;DHT22;3222;48.858;10.128;2023-05-29T14:45:45;24.00;77.60
6379;DHT22;3222;48.858;10.128;2023-05-29T14:48:11;24.10;77.90
6379;DHT22;3222;48.858;10.128;2023-05-29T14:50:37;24.00;79.30
6379;DHT22;3222;48.858;10.128;2023-05-29T14:53:03;24.20;79.40
6379;DHT22;3222;48.858;10.128;2023-05-29T14:55:28;24.30;78.30
6379;DHT22;3222;48.858;10.128;2023-05-29T14:57:56;24.40;79.20
6379;DHT22;3222;48.858;10.128;2023-05-29T15:00:21;24.50;78.70
6379;DHT22;3222;48.858;10.128;2023-05-29T15:02:47;24.60;76.10
6379;DHT22;3222;48.858;10.128;2023-05-29T15:05:13;24.50;77.30
6379;DHT22;3222;48.858;10.128;2023-05-29T15:07:38;24.40;79.10
6379;DHT22;3222;48.858;10.128;2023-05-29T15:10:04;24.40;77.70
6379;DHT22;3222;48.858;10.128;2023-05-29T15:12:31;24.40;77.50
6379;DHT22;3222;48.858;10.128;2023-05-29T15:14:57;24.30;77.30
6379;DHT22;3222;48.858;10.128;2023-05-29T15:17:23;24.20;77.10
6379;DHT22;3222;48.858;10.128;2023-05-29T15:19:48;24.10;77.10
6379;DHT22;3222;48.858;10.128;2023-05-29T15:22:14;24.00;77.60
6379;DHT22;3222;48.858;10.128;2023-05-29T15:24:40;24.00;75.90
6379;DHT22;3222;48.858;10.128;2023-05-29T15:27:05;24.00;75.20
6379;DHT22;3222;48.858;10.128;2023-05-29T15:29:33;24.00;74.80
6379;DHT22;3222;48.858;10.128;2023-05-29T15:32:03;23.90;74.40
6379;DHT22;3222;48.858;10.128;2023-05-29T15:34:29;23.80;71.90
6379;DHT22;3222;48.858;10.128;2023-05-29T15:36:54;23.70;73.20
6379;DHT22;3222;48.858;10.128;2023-05-29T15:39:21;23.60;74.10
6379;DHT22;3222;48.858;10.128;2023-05-29T15:41:47;23.50;75.80
6379;DHT22;3222;48.858;10.128;2023-05-29T15:44:12;23.40;76.40
6379;DHT22;3222;48.858;10.128;2023-05-29T15:46:38;23.40;77.60
6379;DHT22;3222;48.858;10.128;2023-05-29T15:49:04;23.30;77.80
6379;DHT22;3222;48.858;10.128;2023-05-29T15:51:29;23.30;77.30
6379;DHT22;3222;48.858;10.128;2023-05-29T15:53:56;23.20;79.40
6379;DHT22;3222;48.858;10.128;2023-05-29T15:56:23;23.10;80.20
6379;DHT22;3222;48.858;10.128;2023-05-29T15:58:52;23.00;77.50
6379;DHT22;3222;48.858;10.128;2023-05-29T16:01:18;23.00;77.00
6379;DHT22;3222;48.858;10.128;2023-05-29T16:03:44;23.00;78.60
6379;DHT22;3222;48.858;10.128;2023-05-29T16:06:10;22.90;79.10
6379;DHT22;3222;48.858;10.128;2023-05-29T16:08:35;22.80;79.30
6379;DHT22;3222;48.858;10.128;2023-05-29T16:11:01;22.80;79.70